createdAt,value
2023-04-20T00:02:06.172Z,3.00
2023-04-20T00:04:34.462Z,3.00
2023-04-20T00:07:02.687Z,3.10
2023-04-20T00:09:30.904Z,3.10
2023-04-20T00:11:59.103Z,3.20
2023-04-20T00:14:27.343Z,3.20
2023-04-20T00:16:55.597Z,3.20
2023-04-20T00:19:24.663Z,3.20
2023-04-20T00:21:54.387Z,3.20
2023-04-20T00:24:23.151Z,3.20
2023-04-20T00:26:51.262Z,3.00
2023-04-20T00:29:19.936Z,2.90
2023-04-20T00:31:48.052Z,2.80
2023-04-20T00:34:17.317Z,2.70
2023-04-20T00:36:45.858Z,2.70
2023-04-20T00:39:14.200Z,2.60
2023-04-20T00:41:42.449Z,2.70
2023-04-20T00:44:12.863Z,2.80
2023-04-20T00:46:41.556Z,2.80
2023-04-20T00:49:09.792Z,2.90
2023-04-20T00:51:38.266Z,2.90
2023-04-20T00:54:06.670Z,3.00
2023-04-20T00:56:35.176Z,3.00
2023-04-20T00:59:03.567Z,3.10
2023-04-20T01:01:33.195Z,3.10
2023-04-20T01:04:01.501Z,3.10
2023-04-20T01:06:32.030Z,3.10
2023-04-20T01:09:00.547Z,3.10
2023-04-20T01:11:28.695Z,3.10
2023-04-20T01:13:57.092Z,3.10
2023-04-20T01:16:25.641Z,3.10
2023-04-20T01:18:53.982Z,3.10
2023-04-20T01:21:25.024Z,3.10
2023-04-20T01:23:53.832Z,3.10
2023-04-20T01:26:23.724Z,3.10
2023-04-20T01:28:52.671Z,3.00
2023-04-20T01:31:24.586Z,3.00
2023-04-20T01:33:55.255Z,3.00
2023-04-20T01:36:24.039Z,3.00
2023-04-20T01:38:52.335Z,3.10
2023-04-20T01:41:20.647Z,3.10
2023-04-20T01:43:50.082Z,3.10
2023-04-20T01:46:18.329Z,3.10
2023-04-20T01:48:48.503Z,3.00
2023-04-20T01:51:16.905Z,2.80
2023-04-20T01:53:45.786Z,2.70
2023-04-20T01:56:14.067Z,2.70
2023-04-20T01:58:42.449Z,2.70
2023-04-20T02:01:11.444Z,2.70
2023-04-20T02:03:39.785Z,2.80
2023-04-20T02:06:08.019Z,2.80
2023-04-20T02:08:36.320Z,2.80
2023-04-20T02:11:04.527Z,2.80
2023-04-20T02:13:32.616Z,2.90
2023-04-20T02:16:00.781Z,2.80
2023-04-20T02:18:29.034Z,2.80
2023-04-20T02:20:57.179Z,2.70
2023-04-20T02:23:25.297Z,2.70
2023-04-20T02:25:53.566Z,2.70
2023-04-20T02:28:22.056Z,2.70
2023-04-20T02:30:51.045Z,2.80
2023-04-20T02:33:19.218Z,2.80
2023-04-20T02:35:47.625Z,2.90
2023-04-20T02:38:16.111Z,2.80
2023-04-20T02:40:44.274Z,2.80
2023-04-20T02:43:12.523Z,2.80
2023-04-20T02:45:42.207Z,2.80
2023-04-20T02:48:11.744Z,2.80
2023-04-20T02:50:39.981Z,2.80
2023-04-20T02:53:27.092Z,2.90
2023-04-20T02:56:24.730Z,2.90
2023-04-20T02:58:56.775Z,2.80
2023-04-20T03:01:38.043Z,2.80
2023-04-20T03:04:14.786Z,2.80
2023-04-20T03:06:56.675Z,2.80
2023-04-20T03:09:29.375Z,2.80
2023-04-20T03:12:21.780Z,2.80
2023-04-20T03:14:59.720Z,2.70
2023-04-20T03:17:42.897Z,2.70
2023-04-20T03:20:12.541Z,2.70
2023-04-20T03:22:40.768Z,2.60
2023-04-20T03:25:10.491Z,2.60
2023-04-20T03:28:02.625Z,2.60
2023-04-20T03:30:32.134Z,2.60
2023-04-20T03:33:05.391Z,2.60
2023-04-20T03:35:34.883Z,2.50
2023-04-20T03:38:03.399Z,2.50
2023-04-20T03:40:31.806Z,2.50
2023-04-20T03:43:00.765Z,2.50
2023-04-20T03:45:29.946Z,2.50
2023-04-20T03:47:58.404Z,2.50
2023-04-20T03:50:27.964Z,2.50
2023-04-20T03:53:00.187Z,2.50
2023-04-20T03:55:28.724Z,2.50
2023-04-20T03:58:03.059Z,2.40
2023-04-20T04:00:39.779Z,2.30
2023-04-20T04:03:13.238Z,2.30
2023-04-20T04:05:51.433Z,2.30
2023-04-20T04:08:22.377Z,2.40
2023-04-20T04:10:50.669Z,2.50
2023-04-20T04:13:18.867Z,2.60
2023-04-20T04:15:47.425Z,2.70
2023-04-20T04:18:17.001Z,2.70
2023-04-20T04:20:46.297Z,2.70
2023-04-20T04:23:15.623Z,2.70
2023-04-20T04:26:04.667Z,2.60
2023-04-20T04:28:36.685Z,2.50
2023-04-20T04:31:14.018Z,2.60
2023-04-20T04:33:42.613Z,2.60
2023-04-20T04:36:12.871Z,2.60
2023-04-20T04:38:50.717Z,2.60
2023-04-20T04:41:26.838Z,2.60
2023-04-20T04:44:01.362Z,2.60
2023-04-20T04:46:32.386Z,2.60
2023-04-20T04:49:07.030Z,2.60
2023-04-20T04:51:36.930Z,2.60
2023-04-20T04:54:08.963Z,2.60
2023-04-20T04:56:37.576Z,2.60
2023-04-20T04:59:06.257Z,2.60
2023-04-20T05:01:36.580Z,2.60
2023-04-20T05:04:05.270Z,2.70
2023-04-20T05:06:34.596Z,2.80
2023-04-20T05:09:03.115Z,2.90
2023-04-20T05:11:31.633Z,2.90
2023-04-20T05:14:00.155Z,3.00
2023-04-20T05:16:28.643Z,3.00
2023-04-20T05:18:57.182Z,3.00
2023-04-20T05:21:25.791Z,3.20
2023-04-20T05:23:54.331Z,3.30
2023-04-20T05:26:22.919Z,3.40
2023-04-20T05:28:51.458Z,3.40
2023-04-20T05:31:19.777Z,3.50
2023-04-20T05:33:48.203Z,3.60
2023-04-20T05:36:16.594Z,3.70
2023-04-20T05:38:48.628Z,3.80
2023-04-20T05:41:17.168Z,3.90
2023-04-20T05:43:50.103Z,4.00
2023-04-20T05:46:18.461Z,4.10
2023-04-20T05:48:47.053Z,4.20
2023-04-20T05:51:15.714Z,4.30
2023-04-20T05:53:45.003Z,4.40
2023-04-20T05:56:13.477Z,4.70
2023-04-20T05:58:42.479Z,5.10
2023-04-20T06:01:10.698Z,5.40
2023-04-20T06:03:38.987Z,5.80
2023-04-20T06:06:07.400Z,6.20
2023-04-20T06:08:35.650Z,6.40
2023-04-20T06:11:04.032Z,6.80
2023-04-20T06:13:32.250Z,7.10
2023-04-20T06:16:00.453Z,7.40
2023-04-20T06:18:29.966Z,7.60
2023-04-20T06:20:58.330Z,7.90
2023-04-20T06:23:26.639Z,8.20
2023-04-20T06:25:55.002Z,8.50
2023-04-20T06:28:23.194Z,8.70
2023-04-20T06:30:51.508Z,9.00
2023-04-20T06:33:19.816Z,9.20
2023-04-20T06:35:48.116Z,9.60
2023-04-20T06:38:16.270Z,9.90
2023-04-20T06:40:44.389Z,9.70
2023-04-20T06:43:12.530Z,9.30
2023-04-20T06:45:41.623Z,9.10
2023-04-20T06:48:20.240Z,8.60
2023-04-20T06:50:58.099Z,8.40
2023-04-20T06:53:26.729Z,8.40
2023-04-20T06:55:56.052Z,8.50
2023-04-20T06:58:24.343Z,8.40
2023-04-20T07:00:52.912Z,8.90
2023-04-20T07:03:21.192Z,9.40
2023-04-20T07:05:53.664Z,9.70
2023-04-20T07:08:21.840Z,9.50
2023-04-20T07:10:52.671Z,9.30
2023-04-20T07:13:21.127Z,9.30
2023-04-20T07:15:49.495Z,9.60
2023-04-20T07:18:17.701Z,10.00
2023-04-20T07:20:45.939Z,10.40
2023-04-20T07:23:16.030Z,10.70
2023-04-20T07:25:49.677Z,11.00
2023-04-20T07:28:21.168Z,11.30
2023-04-20T07:30:52.456Z,11.50
2023-04-20T07:33:21.648Z,11.30
2023-04-20T07:35:49.867Z,11.00
2023-04-20T07:38:18.182Z,10.90
2023-04-20T07:40:46.655Z,11.00
2023-04-20T07:43:16.513Z,11.40
2023-04-20T07:46:01.296Z,11.70
2023-04-20T07:48:54.800Z,12.00
2023-04-20T07:51:22.921Z,12.30
2023-04-20T07:53:50.957Z,12.50
2023-04-20T07:56:19.054Z,12.60
2023-04-20T07:58:47.099Z,12.70
2023-04-20T08:01:15.926Z,12.70
2023-04-20T08:03:46.301Z,12.60
2023-04-20T08:06:14.455Z,12.80
2023-04-20T08:08:42.579Z,12.70
2023-04-20T08:11:10.711Z,12.90
2023-04-20T08:13:38.757Z,12.90
2023-04-20T08:16:07.556Z,12.90
2023-04-20T08:18:35.818Z,13.00
2023-04-20T08:21:03.923Z,13.00
2023-04-20T08:23:32.249Z,13.20
2023-04-20T08:26:00.685Z,13.30
2023-04-20T08:28:33.268Z,13.30
2023-04-20T08:31:02.639Z,13.50
2023-04-20T08:33:30.989Z,13.60
2023-04-20T08:35:59.060Z,13.30
2023-04-20T08:38:33.723Z,13.40
2023-04-20T08:41:02.695Z,13.40
2023-04-20T08:43:30.815Z,13.00
2023-04-20T08:46:00.389Z,12.60
2023-04-20T08:48:31.865Z,12.50
2023-04-20T08:51:03.147Z,12.50
2023-04-20T08:53:31.778Z,12.60
2023-04-20T08:56:00.228Z,12.80
2023-04-20T08:58:33.159Z,12.90
2023-04-20T09:01:04.045Z,13.10
2023-04-20T09:03:38.202Z,13.20
2023-04-20T09:06:07.783Z,13.00
2023-04-20T09:08:42.803Z,12.30
2023-04-20T09:11:24.166Z,11.90
2023-04-20T09:14:08.463Z,11.40
2023-04-20T09:16:36.867Z,11.30
2023-04-20T09:19:04.931Z,11.40
2023-04-20T09:21:33.918Z,11.50
2023-04-20T09:24:03.064Z,11.50
2023-04-20T09:26:35.548Z,11.40
2023-04-20T09:29:04.172Z,11.30
2023-04-20T09:31:32.292Z,11.40
2023-04-20T09:34:04.356Z,11.30
2023-04-20T09:36:39.725Z,11.10
2023-04-20T09:39:09.657Z,11.10
2023-04-20T09:41:38.170Z,11.10
2023-04-20T09:44:06.669Z,11.20
2023-04-20T09:46:35.890Z,11.20
2023-04-20T09:49:07.107Z,11.30
2023-04-20T09:51:37.923Z,11.40
2023-04-20T09:54:07.080Z,11.60
2023-04-20T09:56:36.318Z,11.90
2023-04-20T09:59:05.607Z,12.00
2023-04-20T10:01:35.855Z,12.00
2023-04-20T10:04:05.321Z,11.80
2023-04-20T10:06:35.016Z,11.40
2023-04-20T10:09:04.172Z,11.20
2023-04-20T10:11:49.033Z,11.20
2023-04-20T10:14:25.169Z,11.20
2023-04-20T10:17:09.972Z,11.00
2023-04-20T10:19:46.129Z,11.20
2023-04-20T10:22:15.676Z,11.20
2023-04-20T10:24:43.736Z,11.10
2023-04-20T10:27:19.058Z,11.20
2023-04-20T10:29:48.559Z,11.10
2023-04-20T10:32:24.053Z,10.90
2023-04-20T10:35:02.778Z,10.70
2023-04-20T10:37:31.032Z,10.50
2023-04-20T10:39:59.143Z,10.40
2023-04-20T10:42:30.882Z,10.30
2023-04-20T10:44:59.050Z,10.10
2023-04-20T10:47:31.528Z,10.10
2023-04-20T10:50:08.939Z,10.10
2023-04-20T10:52:37.884Z,10.10
2023-04-20T10:55:06.517Z,10.30
2023-04-20T10:57:35.249Z,10.40
2023-04-20T11:00:17.907Z,10.30
2023-04-20T11:02:53.216Z,10.30
2023-04-20T11:05:22.240Z,10.30
2023-04-20T11:07:57.001Z,10.30
2023-04-20T11:10:26.177Z,10.20
2023-04-20T11:12:54.438Z,10.10
2023-04-20T11:15:32.040Z,10.00
2023-04-20T11:18:13.370Z,10.10
2023-04-20T11:20:51.443Z,10.00
2023-04-20T11:23:30.569Z,10.20
2023-04-20T11:25:58.978Z,10.50
2023-04-20T11:28:31.645Z,10.60
2023-04-20T11:30:59.964Z,10.70
2023-04-20T11:33:30.961Z,10.90
2023-04-20T11:35:59.666Z,11.10
2023-04-20T11:38:35.127Z,11.20
2023-04-20T11:41:05.935Z,11.20
2023-04-20T11:43:34.101Z,11.30
2023-04-20T11:46:04.002Z,11.40
2023-04-20T11:48:33.073Z,11.20
2023-04-20T11:51:01.077Z,11.00
2023-04-20T11:53:29.205Z,11.00
2023-04-20T11:55:57.204Z,11.10
2023-04-20T11:58:25.291Z,11.10
2023-04-20T12:00:53.330Z,11.10
2023-04-20T12:03:22.030Z,11.00
2023-04-20T12:05:50.377Z,11.00
2023-04-20T12:08:18.622Z,10.70
2023-04-20T12:10:46.910Z,10.60
2023-04-20T12:13:15.272Z,10.50
2023-04-20T12:15:43.444Z,10.40
2023-04-20T12:18:12.511Z,10.40
2023-04-20T12:20:40.614Z,10.20
2023-04-20T12:23:08.700Z,10.10
2023-04-20T12:25:36.795Z,10.10
2023-04-20T12:28:10.432Z,10.10
2023-04-20T12:30:38.502Z,10.00
2023-04-20T12:33:06.652Z,10.00
2023-04-20T12:35:34.833Z,10.00
2023-04-20T12:38:02.952Z,9.80
2023-04-20T12:40:31.081Z,9.70
2023-04-20T12:43:02.181Z,9.80
2023-04-20T12:45:30.718Z,9.80
2023-04-20T12:48:01.607Z,9.70
2023-04-20T12:50:31.008Z,9.70
2023-04-20T12:52:59.752Z,9.60
2023-04-20T12:55:27.823Z,9.60
2023-04-20T12:57:55.854Z,9.50
2023-04-20T13:00:24.050Z,9.60
2023-04-20T13:02:52.575Z,9.60
2023-04-20T13:05:21.119Z,9.60
2023-04-20T13:07:49.196Z,9.60
2023-04-20T13:10:17.312Z,9.60
2023-04-20T13:12:45.355Z,9.60
2023-04-20T13:15:14.668Z,9.60
2023-04-20T13:17:43.319Z,9.60
2023-04-20T13:20:11.806Z,9.70
2023-04-20T13:22:50.435Z,9.70
2023-04-20T13:25:22.857Z,9.70
2023-04-20T13:27:53.122Z,9.70
2023-04-20T13:30:23.531Z,9.80
2023-04-20T13:32:52.300Z,9.70
2023-04-20T13:35:20.478Z,9.80
2023-04-20T13:37:48.583Z,9.80
2023-04-20T13:40:16.741Z,10.00
2023-04-20T13:42:44.836Z,10.00
2023-04-20T13:45:13.066Z,10.00
2023-04-20T13:47:41.400Z,10.10
2023-04-20T13:50:09.745Z,10.00
2023-04-20T13:52:37.926Z,10.00
2023-04-20T13:55:07.388Z,10.00
2023-04-20T13:57:35.491Z,10.00
2023-04-20T14:00:03.691Z,9.90
2023-04-20T14:02:34.005Z,9.80
2023-04-20T14:05:02.298Z,9.80
2023-04-20T14:07:32.804Z,9.90
2023-04-20T14:10:07.286Z,10.00
2023-04-20T14:12:35.582Z,10.00
2023-04-20T14:15:04.721Z,10.10
2023-04-20T14:17:32.917Z,10.10
2023-04-20T14:20:01.004Z,10.10
2023-04-20T14:22:35.472Z,10.20
2023-04-20T14:25:04.746Z,10.20
2023-04-20T14:27:33.028Z,10.30
2023-04-20T14:30:01.175Z,10.30
2023-04-20T14:32:29.354Z,10.30
2023-04-20T14:34:57.458Z,10.40
2023-04-20T14:37:27.538Z,10.40
2023-04-20T14:39:55.773Z,10.10
2023-04-20T14:42:24.088Z,10.00
2023-04-20T14:44:52.112Z,9.90
2023-04-20T14:47:20.333Z,9.90
2023-04-20T14:49:48.397Z,9.90
2023-04-20T14:52:16.683Z,10.00
2023-04-20T14:54:44.682Z,10.10
2023-04-20T14:57:12.728Z,10.10
2023-04-20T14:59:42.738Z,10.20
2023-04-20T15:02:10.842Z,10.30
2023-04-20T15:04:40.314Z,10.30
2023-04-20T15:07:09.661Z,10.30
2023-04-20T15:09:37.725Z,10.40
2023-04-20T15:12:05.970Z,10.50
2023-04-20T15:14:33.953Z,10.50
2023-04-20T15:17:01.967Z,10.40
2023-04-20T15:19:30.174Z,10.40
2023-04-20T15:21:58.245Z,10.40
2023-04-20T15:24:26.320Z,10.40
2023-04-20T15:26:54.379Z,10.40
2023-04-20T15:29:22.598Z,10.40
2023-04-20T15:31:50.757Z,10.40
2023-04-20T15:34:19.298Z,10.50
2023-04-20T15:36:47.544Z,10.50
2023-04-20T15:39:15.615Z,10.60
2023-04-20T15:41:43.731Z,10.60
2023-04-20T15:44:11.853Z,10.50
2023-04-20T15:46:39.984Z,10.50
2023-04-20T15:49:08.149Z,10.40
2023-04-20T15:51:36.207Z,10.40
2023-04-20T15:54:04.287Z,10.50
2023-04-20T15:56:32.291Z,10.40
2023-04-20T15:59:03.100Z,10.50
2023-04-20T16:01:34.587Z,10.50
2023-04-20T16:04:03.356Z,10.50
2023-04-20T16:06:32.931Z,10.60
2023-04-20T16:09:01.072Z,10.60
2023-04-20T16:11:29.087Z,10.60
2023-04-20T16:13:58.080Z,10.50
2023-04-20T16:16:26.591Z,10.60
2023-04-20T16:18:56.329Z,10.60
2023-04-20T16:21:25.158Z,10.60
2023-04-20T16:23:54.637Z,10.60
2023-04-20T16:26:23.034Z,10.50
2023-04-20T16:28:51.115Z,10.50
2023-04-20T16:31:19.222Z,10.50
2023-04-20T16:33:48.091Z,10.40
2023-04-20T16:36:18.189Z,10.40
2023-04-20T16:38:46.249Z,10.30
2023-04-20T16:41:14.248Z,10.30
2023-04-20T16:43:42.470Z,10.30
2023-04-20T16:46:14.287Z,10.30
2023-04-20T16:48:42.340Z,10.30
2023-04-20T16:51:10.412Z,10.30
2023-04-20T16:53:38.586Z,10.30
2023-04-20T16:56:06.991Z,10.40
2023-04-20T16:58:37.256Z,10.40
2023-04-20T17:01:05.856Z,10.40
2023-04-20T17:03:34.090Z,10.40
2023-04-20T17:06:08.680Z,10.40
2023-04-20T17:08:44.703Z,10.50
2023-04-20T17:11:12.988Z,10.50
2023-04-20T17:13:43.356Z,10.60
2023-04-20T17:16:15.084Z,10.50
2023-04-20T17:18:46.289Z,10.50
2023-04-20T17:21:14.757Z,10.50
2023-04-20T17:23:44.726Z,10.50
2023-04-20T17:26:34.311Z,10.50
2023-04-20T17:29:02.539Z,10.50
2023-04-20T17:31:32.504Z,10.40
2023-04-20T17:34:00.803Z,10.40
2023-04-20T17:36:29.401Z,10.40
2023-04-20T17:38:57.535Z,10.40
2023-04-20T17:41:26.642Z,10.40
2023-04-20T17:43:54.700Z,10.40
2023-04-20T17:46:23.731Z,10.40
2023-04-20T17:48:51.939Z,10.40
2023-04-20T17:51:19.984Z,10.30
2023-04-20T17:53:48.040Z,10.30
2023-04-20T17:56:16.182Z,10.30
2023-04-20T17:58:44.611Z,10.30
2023-04-20T18:01:13.050Z,10.30
2023-04-20T18:03:41.213Z,10.30
2023-04-20T18:06:09.604Z,10.30
2023-04-20T18:08:39.002Z,10.30
2023-04-20T18:11:07.806Z,10.30
2023-04-20T18:13:35.790Z,10.40
2023-04-20T18:16:08.906Z,10.30
2023-04-20T18:18:37.618Z,10.30
2023-04-20T18:21:05.944Z,10.30
2023-04-20T18:23:36.908Z,10.30
2023-04-20T18:26:06.234Z,10.20
2023-04-20T18:28:34.630Z,10.20
2023-04-20T18:31:03.787Z,10.20
2023-04-20T18:33:31.887Z,10.20
2023-04-20T18:35:59.868Z,10.20
2023-04-20T18:38:28.542Z,10.10
2023-04-20T18:40:56.709Z,10.10
2023-04-20T18:43:24.760Z,10.10
2023-04-20T18:45:52.900Z,10.10
2023-04-20T18:48:20.915Z,10.10
2023-04-20T18:50:49.422Z,10.10
2023-04-20T18:53:18.057Z,10.10
2023-04-20T18:55:46.247Z,10.10
2023-04-20T18:58:14.364Z,10.10
2023-04-20T19:00:42.466Z,10.10
2023-04-20T19:03:10.804Z,10.10
2023-04-20T19:05:39.799Z,10.20
2023-04-20T19:08:07.803Z,10.20
2023-04-20T19:10:35.861Z,10.20
2023-04-20T19:13:04.205Z,10.30
2023-04-20T19:15:32.737Z,10.30
2023-04-20T19:18:01.195Z,10.30
2023-04-20T19:20:29.336Z,10.30
2023-04-20T19:22:57.348Z,10.30
2023-04-20T19:25:25.390Z,10.30
2023-04-20T19:27:53.571Z,10.30
2023-04-20T19:30:21.672Z,10.30
2023-04-20T19:32:49.736Z,10.30
2023-04-20T19:35:17.827Z,10.30
2023-04-20T19:37:46.111Z,10.30
2023-04-20T19:40:14.289Z,10.30
2023-04-20T19:42:43.641Z,10.20
2023-04-20T19:45:11.827Z,10.20
2023-04-20T19:47:39.859Z,10.20
2023-04-20T19:50:08.137Z,10.20
2023-04-20T19:52:36.718Z,10.20
2023-04-20T19:55:05.776Z,10.20
2023-04-20T19:57:37.177Z,10.20
2023-04-20T20:00:06.635Z,10.20
2023-04-20T20:02:42.627Z,10.20
2023-04-20T20:05:14.453Z,10.10
2023-04-20T20:07:46.365Z,10.10
2023-04-20T20:10:15.688Z,10.00
2023-04-20T20:12:46.366Z,10.00
2023-04-20T20:15:15.454Z,9.90
2023-04-20T20:17:46.786Z,9.90
2023-04-20T20:20:17.567Z,9.90
2023-04-20T20:22:51.727Z,10.00
2023-04-20T20:25:23.225Z,10.00
2023-04-20T20:27:53.089Z,10.00
2023-04-20T20:30:21.254Z,10.00
2023-04-20T20:32:49.475Z,10.10
2023-04-20T20:35:17.686Z,10.10
2023-04-20T20:37:46.550Z,10.00
2023-04-20T20:40:16.831Z,10.00
2023-04-20T20:42:46.348Z,9.90
2023-04-20T20:45:15.315Z,9.80
2023-04-20T20:47:45.248Z,9.80
2023-04-20T20:50:16.813Z,9.80
2023-04-20T20:52:44.863Z,9.80
2023-04-20T20:55:13.051Z,9.90
2023-04-20T20:57:41.132Z,9.90
2023-04-20T21:00:11.106Z,9.90
2023-04-20T21:02:39.659Z,9.80
2023-04-20T21:05:07.959Z,9.80
2023-04-20T21:07:37.448Z,9.70
2023-04-20T21:10:05.636Z,9.70
2023-04-20T21:12:33.731Z,9.70
2023-04-20T21:15:01.928Z,9.70
2023-04-20T21:17:33.122Z,9.70
2023-04-20T21:20:01.534Z,9.70
2023-04-20T21:22:31.163Z,9.70
2023-04-20T21:25:02.031Z,9.70
2023-04-20T21:27:30.053Z,9.80
2023-04-20T21:29:58.098Z,9.80
2023-04-20T21:32:26.483Z,9.80
2023-04-20T21:34:54.972Z,9.90
2023-04-20T21:37:23.173Z,9.90
2023-04-20T21:39:52.283Z,9.90
2023-04-20T21:42:20.561Z,9.80
2023-04-20T21:44:48.713Z,9.80
2023-04-20T21:47:18.324Z,9.70
2023-04-20T21:49:46.884Z,9.70
2023-04-20T21:52:15.008Z,9.70
2023-04-20T21:54:43.318Z,9.80
2023-04-20T21:57:11.447Z,9.80
2023-04-20T21:59:39.577Z,9.80
2023-04-20T22:02:07.784Z,9.80
2023-04-20T22:04:36.288Z,9.80
2023-04-20T22:07:04.528Z,9.90
2023-04-20T22:09:32.626Z,9.90
2023-04-20T22:12:03.120Z,9.90
2023-04-20T22:14:31.228Z,9.90
2023-04-20T22:16:59.309Z,9.90
2023-04-20T22:19:27.465Z,9.90
2023-04-20T22:21:55.870Z,9.90
2023-04-20T22:24:23.898Z,9.80
2023-04-20T22:26:51.932Z,9.90
2023-04-20T22:29:20.556Z,9.80
2023-04-20T22:31:48.787Z,9.70
2023-04-20T22:34:17.212Z,9.60
2023-04-20T22:36:45.256Z,9.60
2023-04-20T22:39:13.320Z,9.70
2023-04-20T22:41:41.369Z,9.70
2023-04-20T22:44:09.367Z,9.70
2023-04-20T22:46:37.518Z,9.70
2023-04-20T22:49:05.967Z,9.70
2023-04-20T22:51:34.471Z,9.70
2023-04-20T22:54:03.786Z,9.50
2023-04-20T22:56:31.961Z,9.50
2023-04-20T22:58:59.975Z,9.50
2023-04-20T23:01:28.072Z,9.50
2023-04-20T23:03:56.264Z,9.60
2023-04-20T23:06:24.871Z,9.60
2023-04-20T23:08:53.269Z,9.60
2023-04-20T23:11:22.057Z,9.60
2023-04-20T23:13:50.432Z,9.60
2023-04-20T23:16:22.415Z,9.50
2023-04-20T23:18:50.486Z,9.40
2023-04-20T23:21:20.177Z,9.30
2023-04-20T23:23:48.253Z,9.20
2023-04-20T23:26:19.444Z,9.20
2023-04-20T23:28:47.942Z,9.30
2023-04-20T23:31:16.362Z,9.30
2023-04-20T23:33:44.439Z,9.40
2023-04-20T23:36:13.509Z,9.30
2023-04-20T23:38:41.943Z,9.20
2023-04-20T23:41:11.183Z,9.20
2023-04-20T23:43:42.431Z,9.10
2023-04-20T23:46:11.033Z,9.20
2023-04-20T23:48:39.129Z,9.30
2023-04-20T23:51:07.204Z,9.40
2023-04-20T23:53:43.738Z,9.40
2023-04-20T23:56:11.969Z,9.40
2023-04-20T23:58:40.289Z,9.50
